createdAt,value
2018-07-22T00:01:27.414Z,51.50
2018-07-22T00:04:32.174Z,51.51
2018-07-22T00:07:37.299Z,51.43
2018-07-22T00:10:45.367Z,51.77
2018-07-22T00:13:50.902Z,51.97
2018-07-22T00:16:56.508Z,52.04
2018-07-22T00:20:02.072Z,51.32
2018-07-22T00:23:07.384Z,51.90
2018-07-22T00:26:11.055Z,52.21
2018-07-22T00:29:15.525Z,51.16
2018-07-22T00:32:20.332Z,51.90
2018-07-22T00:35:26.592Z,51.56
2018-07-22T00:38:31.130Z,51.72
2018-07-22T00:41:38.934Z,52.13
2018-07-22T00:44:43.200Z,52.66
2018-07-22T00:47:49.348Z,52.18
2018-07-22T00:50:54.846Z,52.36
2018-07-22T00:53:59.275Z,52.78
2018-07-22T00:57:03.765Z,52.80
2018-07-22T01:00:10.646Z,53.39
2018-07-22T01:03:14.816Z,53.46
2018-07-22T01:06:18.702Z,53.87
2018-07-22T01:09:23.573Z,53.68
2018-07-22T01:12:28.196Z,53.43
2018-07-22T01:15:34.750Z,52.73
2018-07-22T01:18:41.535Z,52.40
2018-07-22T01:21:45.563Z,52.66
2018-07-22T01:24:51.208Z,53.83
2018-07-22T01:27:56.038Z,53.48
2018-07-22T01:31:00.040Z,54.89
2018-07-22T01:34:03.954Z,53.80
2018-07-22T01:37:08.833Z,54.90
2018-07-22T01:40:12.606Z,55.28
2018-07-22T01:43:17.207Z,54.98
2018-07-22T01:46:21.665Z,54.45
2018-07-22T01:49:27.307Z,54.55
2018-07-22T01:52:31.012Z,53.65
2018-07-22T01:55:34.847Z,53.66
2018-07-22T01:58:38.734Z,54.76
2018-07-22T02:01:42.564Z,56.02
2018-07-22T02:04:46.358Z,55.65
2018-07-22T02:07:50.242Z,55.67
2018-07-22T02:10:54.065Z,55.13
2018-07-22T02:14:01.254Z,54.55
2018-07-22T02:17:04.983Z,53.94
2018-07-22T02:20:08.860Z,55.43
2018-07-22T02:23:12.684Z,57.32
2018-07-22T02:26:17.522Z,57.85
2018-07-22T02:29:21.331Z,55.75
2018-07-22T02:32:25.723Z,56.10
2018-07-22T02:35:29.567Z,56.25
2018-07-22T02:38:33.379Z,56.76
2018-07-22T02:41:37.304Z,56.77
2018-07-22T02:44:43.067Z,56.71
2018-07-22T02:47:47.572Z,56.80
2018-07-22T02:50:51.385Z,56.94
2018-07-22T02:53:55.082Z,57.04
2018-07-22T02:56:59.922Z,57.63
2018-07-22T03:00:06.592Z,57.92
2018-07-22T03:03:25.030Z,57.94
2018-07-22T03:06:29.375Z,58.28
2018-07-22T03:09:35.643Z,57.81
2018-07-22T03:12:39.446Z,58.17
2018-07-22T03:15:44.359Z,58.02
2018-07-22T03:18:48.614Z,58.34
2018-07-22T03:21:54.515Z,58.91
2018-07-22T03:25:01.689Z,57.88
2018-07-22T03:28:06.652Z,58.29
2018-07-22T03:31:12.355Z,58.64
2018-07-22T03:34:16.173Z,58.18
2018-07-22T03:37:19.945Z,58.22
2018-07-22T03:40:23.686Z,58.85
2018-07-22T03:43:27.425Z,59.54
2018-07-22T03:46:31.818Z,59.51
2018-07-22T03:49:35.747Z,60.16
2018-07-22T03:52:40.808Z,59.56
2018-07-22T03:55:45.555Z,59.52
2018-07-22T03:58:49.445Z,59.70
2018-07-22T04:01:53.155Z,59.93
2018-07-22T04:04:57.324Z,60.71
2018-07-22T04:08:01.102Z,60.40
2018-07-22T04:11:06.789Z,60.33
2018-07-22T04:14:10.627Z,60.67
2018-07-22T04:17:14.331Z,61.08
2018-07-22T04:20:18.874Z,61.20
2018-07-22T04:23:23.604Z,61.82
2018-07-22T04:26:27.968Z,60.18
2018-07-22T04:29:33.793Z,60.74
2018-07-22T04:32:38.117Z,60.53
2018-07-22T04:35:43.834Z,60.91
2018-07-22T04:38:48.486Z,61.66
2018-07-22T04:41:52.740Z,61.78
2018-07-22T04:44:58.162Z,61.49
2018-07-22T04:48:02.592Z,61.23
2018-07-22T04:51:07.210Z,62.07
2018-07-22T04:54:10.985Z,60.88
2018-07-22T04:57:14.696Z,60.38
2018-07-22T05:00:19.864Z,60.19
2018-07-22T05:03:26.815Z,59.09
2018-07-22T05:06:32.836Z,59.72
2018-07-22T05:09:37.479Z,59.61
2018-07-22T05:12:42.572Z,60.17
2018-07-22T05:15:46.936Z,60.45
2018-07-22T05:18:54.261Z,59.30
2018-07-22T05:21:57.759Z,61.85
2018-07-22T05:25:02.279Z,61.02
2018-07-22T05:28:05.866Z,62.01
2018-07-22T05:31:09.393Z,61.48
2018-07-22T05:34:16.285Z,61.19
2018-07-22T05:37:21.490Z,61.48
2018-07-22T05:40:25.023Z,61.04
2018-07-22T05:43:28.523Z,61.35
2018-07-22T05:46:32.160Z,60.13
2018-07-22T05:49:35.837Z,58.61
2018-07-22T05:53:12.864Z,59.27
2018-07-22T06:04:06.862Z,59.20
2018-07-22T06:13:28.777Z,57.91
2018-07-22T06:16:44.539Z,58.16
2018-07-22T06:20:02.762Z,58.13
2018-07-22T06:23:06.962Z,58.41
2018-07-22T06:26:12.881Z,57.92
2018-07-22T06:29:17.347Z,57.71
2018-07-22T06:32:20.974Z,57.31
2018-07-22T06:35:25.417Z,57.27
2018-07-22T06:38:28.928Z,58.45
2018-07-22T06:41:33.265Z,58.51
2018-07-22T06:44:43.012Z,58.02
2018-07-22T06:47:46.594Z,57.30
2018-07-22T06:50:51.039Z,57.78
2018-07-22T06:53:55.731Z,56.77
2018-07-22T06:56:59.707Z,56.75
2018-07-22T07:00:04.339Z,56.55
2018-07-22T07:03:08.747Z,55.34
2018-07-22T07:06:12.430Z,55.06
2018-07-22T07:09:16.547Z,55.16
2018-07-22T07:12:20.196Z,52.51
2018-07-22T07:15:23.788Z,52.05
2018-07-22T07:18:27.267Z,51.57
2018-07-22T07:21:31.670Z,49.83
2018-07-22T07:24:35.174Z,51.11
2018-07-22T07:27:38.674Z,51.62
2018-07-22T07:30:42.172Z,49.72
2018-07-22T07:33:45.781Z,49.65
2018-07-22T07:36:50.155Z,49.91
2018-07-22T07:39:53.880Z,49.22
2018-07-22T07:42:58.237Z,51.10
2018-07-22T07:46:11.708Z,51.88
2018-07-22T07:49:31.759Z,50.67
2018-07-22T07:52:39.501Z,49.99
2018-07-22T07:55:43.096Z,47.32
2018-07-22T07:58:46.873Z,49.67
2018-07-22T08:01:51.538Z,53.88
2018-07-22T08:04:58.855Z,49.37
2018-07-22T08:08:02.618Z,48.09
2018-07-22T08:11:06.411Z,47.62
2018-07-22T08:14:17.953Z,47.77
2018-07-22T08:17:21.448Z,44.65
2018-07-22T08:20:25.532Z,50.10
2018-07-22T08:23:29.714Z,47.84
2018-07-22T08:26:34.748Z,45.78
2018-07-22T08:29:39.478Z,46.31
2018-07-22T08:32:43.114Z,46.45
2018-07-22T08:35:47.333Z,44.33
2018-07-22T08:38:51.219Z,44.70
2018-07-22T08:41:59.177Z,47.43
2018-07-22T08:45:03.162Z,49.32
2018-07-22T08:51:17.925Z,43.74
2018-07-22T08:54:22.270Z,43.83
2018-07-22T08:57:39.186Z,44.22
2018-07-22T09:00:43.813Z,44.79
2018-07-22T09:03:52.437Z,43.89
2018-07-22T09:06:56.147Z,42.79
2018-07-22T09:10:15.549Z,43.13
2018-07-22T09:13:27.370Z,44.14
2018-07-22T09:16:31.290Z,43.05
2018-07-22T09:19:54.365Z,42.63
2018-07-22T09:22:58.773Z,43.09
2018-07-22T09:26:02.735Z,45.19
2018-07-22T09:29:07.509Z,45.69
2018-07-22T09:32:12.608Z,45.02
2018-07-22T09:35:16.223Z,43.76
2018-07-22T09:38:22.105Z,43.84
2018-07-22T09:41:25.788Z,44.62
2018-07-22T09:44:29.509Z,40.42
2018-07-22T09:47:34.041Z,40.79
2018-07-22T09:50:39.150Z,41.91
2018-07-22T09:53:42.850Z,44.46
2018-07-22T09:56:47.206Z,41.46
2018-07-22T09:59:51.709Z,42.41
2018-07-22T10:02:55.284Z,40.02
2018-07-22T10:05:58.761Z,42.32
2018-07-22T10:13:02.138Z,42.78
2018-07-22T10:21:50.432Z,37.40
2018-07-22T10:25:49.636Z,39.43
2018-07-22T10:28:53.800Z,39.34
2018-07-22T10:31:57.250Z,37.59
2018-07-22T10:35:00.856Z,38.79
2018-07-22T10:38:04.359Z,39.16
2018-07-22T10:41:08.830Z,39.83
2018-07-22T10:44:12.388Z,40.10
2018-07-22T10:47:16.094Z,39.83
2018-07-22T10:50:22.565Z,41.58
2018-07-22T10:53:26.230Z,41.14
2018-07-22T10:56:29.745Z,40.91
2018-07-22T10:59:33.372Z,41.02
2018-07-22T11:02:38.124Z,41.50
2018-07-22T11:05:42.665Z,40.12
2018-07-22T11:08:49.199Z,39.60
2018-07-22T11:11:53.223Z,38.98
2018-07-22T11:14:56.877Z,38.27
2018-07-22T11:18:01.094Z,37.52
2018-07-22T11:21:06.081Z,38.74
2018-07-22T11:24:10.537Z,37.20
2018-07-22T11:27:16.816Z,37.29
2018-07-22T11:30:21.907Z,38.44
2018-07-22T11:33:25.670Z,38.55
2018-07-22T11:36:29.223Z,37.26
2018-07-22T11:39:32.798Z,35.24
2018-07-22T11:42:37.879Z,35.86
2018-07-22T11:45:41.438Z,36.17
2018-07-22T11:48:44.938Z,36.32
2018-07-22T11:51:49.277Z,35.09
2018-07-22T11:54:53.251Z,36.13
2018-07-22T11:57:57.394Z,36.22
2018-07-22T12:01:00.894Z,34.82
2018-07-22T12:04:05.468Z,35.03
2018-07-22T12:07:09.992Z,35.35
2018-07-22T12:10:14.189Z,36.33
2018-07-22T12:13:18.639Z,36.35
2018-07-22T12:16:25.213Z,37.20
2018-07-22T12:19:28.692Z,37.37
2018-07-22T12:22:34.684Z,35.35
2018-07-22T12:25:38.178Z,36.01
2018-07-22T12:28:41.753Z,38.83
2018-07-22T12:31:47.722Z,37.56
2018-07-22T12:34:51.328Z,36.88
2018-07-22T12:37:57.584Z,36.79
2018-07-22T12:41:01.176Z,37.09
2018-07-22T12:44:04.746Z,37.38
2018-07-22T12:47:10.067Z,37.53
2018-07-22T12:50:13.934Z,37.05
2018-07-22T12:53:17.716Z,37.64
2018-07-22T12:56:21.745Z,37.78
2018-07-22T12:59:25.815Z,36.05
2018-07-22T13:02:29.522Z,37.86
2018-07-22T13:05:33.024Z,37.95
2018-07-22T13:08:37.089Z,36.60
2018-07-22T13:11:41.389Z,37.76
2018-07-22T13:14:45.888Z,35.93
2018-07-22T13:17:50.365Z,36.44
2018-07-22T13:20:55.292Z,35.57
2018-07-22T13:24:00.352Z,36.81
2018-07-22T13:27:03.832Z,37.25
2018-07-22T13:30:08.134Z,36.33
2018-07-22T13:33:12.335Z,37.70
2018-07-22T13:36:15.883Z,37.14
2018-07-22T13:39:19.386Z,36.08
2018-07-22T13:42:22.956Z,37.08
2018-07-22T13:45:28.162Z,37.39
2018-07-22T13:48:32.621Z,37.74
2018-07-22T13:51:40.029Z,36.62
2018-07-22T13:54:47.234Z,39.16
2018-07-22T13:57:52.558Z,38.56
2018-07-22T14:00:56.857Z,38.14
2018-07-22T14:04:02.441Z,37.50
2018-07-22T14:07:13.663Z,36.29
2018-07-22T14:10:19.872Z,36.17
2018-07-22T14:13:24.162Z,35.72
2018-07-22T14:16:34.555Z,36.36
2018-07-22T14:19:41.079Z,35.78
2018-07-22T14:22:44.697Z,37.39
2018-07-22T14:25:50.584Z,36.13
2018-07-22T14:28:54.150Z,36.23
2018-07-22T14:31:57.697Z,35.16
2018-07-22T14:35:01.211Z,35.55
2018-07-22T14:38:05.825Z,34.43
2018-07-22T14:41:09.633Z,35.85
2018-07-22T14:44:13.134Z,35.42
2018-07-22T14:47:17.187Z,36.94
2018-07-22T14:50:20.856Z,37.69
2018-07-22T14:53:26.651Z,38.56
2018-07-22T14:56:30.337Z,38.34
2018-07-22T14:59:34.646Z,37.43
2018-07-22T15:02:38.349Z,36.68
2018-07-22T15:05:42.975Z,38.16
2018-07-22T15:08:46.818Z,37.94
2018-07-22T15:11:50.512Z,38.50
2018-07-22T15:14:54.053Z,38.76
2018-07-22T15:17:58.214Z,39.36
2018-07-22T15:21:03.228Z,39.07
2018-07-22T15:24:07.204Z,39.13
2018-07-22T15:27:10.684Z,38.76
2018-07-22T15:30:15.525Z,40.15
2018-07-22T15:33:19.935Z,40.81
2018-07-22T15:36:23.505Z,39.28
2018-07-22T15:39:27.769Z,41.80
2018-07-22T15:42:32.701Z,41.45
2018-07-22T15:45:37.429Z,38.98
2018-07-22T15:48:42.629Z,44.52
2018-07-22T15:51:46.644Z,40.99
2018-07-22T15:54:50.397Z,40.72
2018-07-22T15:57:54.002Z,40.25
2018-07-22T16:00:59.296Z,43.84
2018-07-22T16:04:05.383Z,41.12
2018-07-22T16:07:20.091Z,43.05
2018-07-22T16:10:29.721Z,44.90
2018-07-22T16:13:33.429Z,42.56
2018-07-22T16:16:44.060Z,43.19
2018-07-22T16:19:47.832Z,45.56
2018-07-22T16:22:51.609Z,42.30
2018-07-22T16:25:55.833Z,42.84
2018-07-22T16:28:59.537Z,44.17
2018-07-22T16:32:09.192Z,44.83
2018-07-22T16:35:13.984Z,45.18
2018-07-22T16:41:42.433Z,47.15
2018-07-22T16:44:46.227Z,44.44
2018-07-22T16:47:51.912Z,41.34
2018-07-22T16:50:57.574Z,41.90
2018-07-22T16:54:02.058Z,44.65
2018-07-22T16:57:05.773Z,43.04
2018-07-22T17:00:09.886Z,43.68
2018-07-22T17:03:14.304Z,43.72
2018-07-22T17:06:19.248Z,42.43
2018-07-22T17:09:22.951Z,44.20
2018-07-22T17:12:26.579Z,46.18
2018-07-22T17:15:30.876Z,44.76
2018-07-22T17:18:36.883Z,46.14
2018-07-22T17:21:41.583Z,46.42
2018-07-22T17:24:48.665Z,46.59
2018-07-22T17:27:52.362Z,45.21
2018-07-22T17:30:57.093Z,46.10
2018-07-22T17:34:01.441Z,47.52
2018-07-22T17:37:13.831Z,48.92
2018-07-22T17:40:17.400Z,48.47
2018-07-22T17:43:23.403Z,46.39
2018-07-22T17:46:28.224Z,46.69
2018-07-22T17:49:41.978Z,47.52
2018-07-22T17:53:07.180Z,48.30
2018-07-22T17:56:16.618Z,47.25
2018-07-22T17:59:20.223Z,48.84
2018-07-22T18:02:24.755Z,47.83
2018-07-22T18:05:29.792Z,48.31
2018-07-22T18:08:35.041Z,48.18
2018-07-22T18:11:41.114Z,46.93
2018-07-22T18:14:55.154Z,48.28
2018-07-22T18:17:58.851Z,48.03
2018-07-22T18:21:04.858Z,48.79
2018-07-22T18:24:27.391Z,48.16
2018-07-22T18:44:11.406Z,49.62
2018-07-22T19:03:55.239Z,49.55
2018-07-22T19:20:31.174Z,50.08
2018-07-22T19:23:39.460Z,50.64
2018-07-22T19:26:47.641Z,51.54
2018-07-22T19:29:53.855Z,51.82
2018-07-22T19:36:14.417Z,51.23
2018-07-22T19:39:20.068Z,51.18
2018-07-22T19:42:25.535Z,51.99
2018-07-22T19:45:43.359Z,51.38
2018-07-22T19:48:48.876Z,51.30
2018-07-22T19:51:55.449Z,52.38
2018-07-22T19:55:00.151Z,53.46
2018-07-22T19:58:06.287Z,53.11
2018-07-22T20:01:24.662Z,52.13
2018-07-22T20:04:34.005Z,52.60
2018-07-22T20:07:48.786Z,53.71
2018-07-22T20:10:54.740Z,53.18
2018-07-22T20:13:59.420Z,53.05
2018-07-22T20:17:04.612Z,53.76
2018-07-22T20:20:11.084Z,52.89
2018-07-22T20:23:16.413Z,53.75
2018-07-22T20:26:31.974Z,53.55
2018-07-22T21:36:01.508Z,56.76
2018-07-22T21:39:08.472Z,56.97
2018-07-22T21:42:14.273Z,56.86
2018-07-22T21:45:20.898Z,56.77
2018-07-22T21:48:25.815Z,57.28
2018-07-22T21:51:36.039Z,56.70
2018-07-22T21:54:39.947Z,56.18
2018-07-22T21:57:44.387Z,57.39
2018-07-22T22:00:49.817Z,56.63
2018-07-22T22:03:53.676Z,56.51
2018-07-22T22:07:02.927Z,57.00
2018-07-22T22:10:07.988Z,57.11
2018-07-22T22:13:11.838Z,56.88
2018-07-22T22:16:15.828Z,57.64
2018-07-22T22:19:20.457Z,57.54
2018-07-22T22:22:24.375Z,57.71
2018-07-22T22:25:28.843Z,58.35
2018-07-22T22:28:32.692Z,58.77
2018-07-22T22:31:36.461Z,58.91
2018-07-22T22:34:40.355Z,58.39
2018-07-22T22:37:44.751Z,59.39
2018-07-22T22:40:49.701Z,59.14
2018-07-22T22:43:55.631Z,58.73
2018-07-22T22:47:00.868Z,59.70
2018-07-22T22:50:05.203Z,59.58
2018-07-22T22:53:09.972Z,59.86
2018-07-22T22:56:14.730Z,60.12
2018-07-22T22:59:23.488Z,60.08
2018-07-22T23:02:32.604Z,60.84
2018-07-22T23:05:37.589Z,61.86
2018-07-22T23:08:42.381Z,61.05
2018-07-22T23:11:47.228Z,60.67
2018-07-22T23:14:51.399Z,60.63
2018-07-22T23:17:56.062Z,61.62
2018-07-22T23:21:00.897Z,60.74
2018-07-22T23:24:05.773Z,61.14
2018-07-22T23:27:11.596Z,61.13
2018-07-22T23:30:15.924Z,61.77
2018-07-22T23:33:20.018Z,62.82
2018-07-22T23:36:24.457Z,62.90
2018-07-22T23:39:29.152Z,63.80
2018-07-22T23:42:32.884Z,63.34
2018-07-22T23:45:36.700Z,63.18
2018-07-22T23:48:42.780Z,62.06
2018-07-22T23:51:46.786Z,62.61
2018-07-22T23:54:50.914Z,62.50
2018-07-22T23:57:55.753Z,62.08
